createdAt,value
2023-12-16T00:00:21.736Z,0.50
2023-12-16T00:03:11.640Z,3.50
2023-12-16T00:05:40.763Z,3.30
2023-12-16T00:08:09.103Z,3.30
2023-12-16T00:10:37.350Z,3.40
2023-12-16T00:13:05.904Z,3.70
2023-12-16T00:15:34.631Z,0.90
2023-12-16T00:18:03.036Z,1.00
2023-12-16T00:20:31.513Z,3.80
2023-12-16T00:22:59.717Z,3.40
2023-12-16T00:25:27.988Z,0.80
2023-12-16T00:27:56.612Z,0.90
2023-12-16T00:30:24.947Z,3.50
2023-12-16T00:32:53.382Z,3.10
2023-12-16T00:35:23.161Z,0.80
2023-12-16T00:37:51.869Z,2.90
2023-12-16T00:40:20.144Z,3.50
2023-12-16T00:42:48.733Z,3.50
2023-12-16T00:45:20.210Z,3.20
2023-12-16T00:47:50.880Z,0.70
2023-12-16T00:50:19.064Z,2.80
2023-12-16T00:52:47.211Z,2.80
2023-12-16T00:55:15.602Z,1.00
2023-12-16T00:57:43.992Z,2.90
2023-12-16T01:03:41.035Z,3.00
2023-12-16T01:06:10.131Z,0.70
2023-12-16T01:08:38.885Z,0.40
2023-12-16T01:11:07.608Z,0.70
2023-12-16T01:13:35.820Z,2.60
2023-12-16T01:16:04.294Z,2.60
2023-12-16T01:18:32.975Z,3.00
2023-12-16T01:21:05.857Z,2.90
2023-12-16T01:23:34.738Z,0.40
2023-12-16T01:26:04.793Z,0.60
2023-12-16T01:28:33.704Z,0.70
2023-12-16T01:31:02.568Z,2.60
2023-12-16T01:33:32.179Z,2.30
2023-12-16T01:36:01.081Z,0.30
2023-12-16T01:38:29.504Z,2.30
2023-12-16T01:40:57.744Z,2.40
2023-12-16T01:43:26.101Z,0.40
2023-12-16T01:46:03.136Z,2.50
2023-12-16T01:48:32.971Z,0.70
2023-12-16T01:51:05.537Z,2.40
2023-12-16T01:53:35.327Z,2.90
2023-12-16T01:56:04.450Z,0.70
2023-12-16T01:58:32.881Z,2.30
2023-12-16T02:01:01.191Z,2.50
2023-12-16T02:03:30.391Z,0.80
2023-12-16T02:05:59.208Z,0.40
2023-12-16T02:08:27.354Z,2.30
2023-12-16T02:10:55.595Z,2.40
2023-12-16T02:13:24.036Z,0.30
2023-12-16T02:15:52.722Z,2.30
2023-12-16T02:18:21.178Z,0.90
2023-12-16T02:20:49.980Z,0.80
2023-12-16T02:23:18.773Z,0.50
2023-12-16T02:25:47.101Z,2.00
2023-12-16T02:28:15.687Z,2.10
2023-12-16T02:30:43.929Z,2.20
2023-12-16T02:33:12.309Z,0.90
2023-12-16T02:35:41.691Z,0.50
2023-12-16T02:38:11.044Z,0.70
2023-12-16T02:40:39.208Z,0.70
2023-12-16T02:43:07.483Z,2.30
2023-12-16T02:45:35.858Z,2.00
2023-12-16T02:48:04.239Z,2.10
2023-12-16T02:50:32.685Z,0.70
2023-12-16T02:53:00.877Z,1.70
2023-12-16T02:55:29.237Z,2.00
2023-12-16T02:57:57.700Z,1.80
2023-12-16T03:00:26.308Z,0.90
2023-12-16T03:02:54.513Z,1.80
2023-12-16T03:05:24.616Z,1.00
2023-12-16T03:07:53.208Z,0.30
2023-12-16T03:10:22.211Z,0.50
2023-12-16T03:12:50.548Z,0.60
2023-12-16T03:15:19.736Z,0.60
2023-12-16T03:17:50.410Z,1.90
2023-12-16T03:20:18.619Z,2.10
2023-12-16T03:22:46.996Z,2.00
2023-12-16T03:25:15.862Z,0.50
2023-12-16T03:27:44.281Z,0.40
2023-12-16T03:30:12.942Z,1.70
2023-12-16T03:32:41.378Z,1.90
2023-12-16T03:35:09.640Z,0.40
2023-12-16T03:37:38.104Z,0.30
2023-12-16T03:40:07.366Z,0.60
2023-12-16T03:42:35.732Z,0.20
2023-12-16T03:45:04.258Z,1.50
2023-12-16T03:47:33.569Z,0.60
2023-12-16T03:50:02.200Z,0.40
2023-12-16T03:52:30.616Z,1.40
2023-12-16T03:54:59.434Z,0.50
2023-12-16T03:57:28.766Z,1.60
2023-12-16T03:59:57.081Z,1.40
2023-12-16T04:02:25.564Z,0.20
2023-12-16T04:04:55.176Z,1.40
2023-12-16T04:07:23.415Z,0.20
2023-12-16T04:09:51.808Z,0.40
2023-12-16T04:12:19.973Z,0.50
2023-12-16T04:14:48.234Z,0.30
2023-12-16T04:17:16.598Z,0.20
2023-12-16T04:19:52.123Z,1.60
2023-12-16T04:22:20.875Z,1.40
2023-12-16T04:24:50.193Z,0.30
2023-12-16T04:27:18.419Z,1.40
2023-12-16T04:29:46.711Z,0.60
2023-12-16T04:32:14.884Z,1.50
2023-12-16T04:34:43.117Z,0.30
2023-12-16T04:37:11.705Z,0.30
2023-12-16T04:39:40.005Z,0.20
2023-12-16T04:42:08.926Z,0.40
2023-12-16T04:44:38.354Z,1.40
2023-12-16T04:47:06.592Z,0.50
2023-12-16T04:49:35.634Z,0.40
2023-12-16T04:52:04.294Z,0.20
2023-12-16T04:54:32.700Z,0.70
2023-12-16T04:57:01.163Z,0.20
2023-12-16T04:59:29.501Z,1.90
2023-12-16T05:01:57.744Z,1.80
2023-12-16T05:04:27.040Z,0.60
2023-12-16T05:06:56.201Z,0.40
2023-12-16T05:09:24.584Z,1.40
2023-12-16T05:11:52.903Z,0.40
2023-12-16T05:14:21.078Z,2.00
2023-12-16T05:16:49.857Z,0.60
2023-12-16T05:19:18.502Z,0.60
2023-12-16T05:21:46.926Z,0.20
2023-12-16T05:24:15.682Z,0.20
2023-12-16T05:26:43.898Z,1.70
2023-12-16T05:29:12.929Z,2.50
2023-12-16T05:31:41.983Z,0.40
2023-12-16T05:34:10.617Z,0.20
2023-12-16T05:36:42.377Z,0.40
2023-12-16T05:39:10.976Z,0.20
2023-12-16T05:41:39.200Z,1.50
2023-12-16T05:44:07.512Z,0.40
2023-12-16T05:46:35.738Z,0.30
2023-12-16T05:49:04.196Z,0.50
2023-12-16T05:51:40.087Z,0.30
2023-12-16T05:54:09.082Z,0.30
2023-12-16T05:56:37.486Z,1.40
2023-12-16T05:59:05.742Z,0.40
2023-12-16T06:01:34.347Z,0.10
2023-12-16T06:04:03.224Z,0.20
2023-12-16T06:06:31.470Z,0.10
2023-12-16T06:08:59.652Z,0.10
2023-12-16T06:11:27.978Z,0.30
2023-12-16T06:13:56.218Z,0.20
2023-12-16T06:16:24.613Z,1.00
2023-12-16T06:18:53.451Z,0.30
2023-12-16T06:21:22.056Z,1.20
2023-12-16T06:23:50.233Z,1.10
2023-12-16T06:26:20.049Z,0.10
2023-12-16T06:28:48.148Z,0.20
2023-12-16T06:31:17.812Z,1.00
2023-12-16T06:33:46.988Z,0.30
2023-12-16T06:36:15.883Z,0.20
2023-12-16T06:38:44.295Z,0.30
2023-12-16T06:41:12.670Z,0.20
2023-12-16T06:43:40.934Z,0.10
2023-12-16T06:46:09.753Z,0.50
2023-12-16T06:48:38.860Z,0.30
2023-12-16T06:51:07.106Z,0.50
2023-12-16T06:53:35.721Z,0.20
2023-12-16T06:56:05.699Z,0.20
2023-12-16T06:58:34.593Z,0.40
2023-12-16T07:01:03.289Z,0.30
2023-12-16T07:03:32.020Z,0.40
2023-12-16T07:06:02.619Z,1.20
2023-12-16T07:08:31.684Z,0.30
2023-12-16T07:11:00.152Z,0.40
2023-12-16T07:13:28.478Z,0.30
2023-12-16T07:15:56.743Z,1.30
2023-12-16T07:18:25.062Z,0.50
2023-12-16T07:20:53.333Z,0.50
2023-12-16T07:23:21.590Z,0.90
2023-12-16T07:25:50.204Z,0.40
2023-12-16T07:28:18.923Z,0.40
2023-12-16T07:30:47.392Z,0.30
2023-12-16T07:33:15.805Z,0.20
2023-12-16T07:35:44.837Z,0.30
2023-12-16T07:38:13.098Z,1.10
2023-12-16T07:40:41.649Z,1.50
2023-12-16T07:43:09.801Z,0.40
2023-12-16T07:45:38.011Z,0.50
2023-12-16T07:48:06.256Z,0.40
2023-12-16T07:50:34.701Z,1.40
2023-12-16T07:53:02.824Z,0.50
2023-12-16T07:55:31.624Z,1.70
2023-12-16T07:58:00.620Z,0.30
2023-12-16T08:00:30.025Z,0.30
2023-12-16T08:02:58.469Z,1.70
2023-12-16T08:05:26.902Z,1.70
2023-12-16T08:07:55.617Z,1.80
2023-12-16T08:10:23.954Z,2.20
2023-12-16T08:12:53.405Z,1.90
2023-12-16T08:15:21.778Z,0.50
2023-12-16T08:17:50.252Z,1.80
2023-12-16T08:20:18.601Z,1.70
2023-12-16T08:22:46.708Z,1.70
2023-12-16T08:25:15.319Z,2.30
2023-12-16T08:27:43.903Z,1.80
2023-12-16T08:30:12.680Z,2.10
2023-12-16T08:32:41.305Z,1.70
2023-12-16T08:35:09.748Z,1.70
2023-12-16T08:37:38.291Z,1.70
2023-12-16T08:40:08.096Z,1.50
2023-12-16T08:42:36.434Z,1.60
2023-12-16T08:45:04.893Z,1.80
2023-12-16T08:47:33.398Z,1.70
2023-12-16T08:50:01.591Z,1.70
2023-12-16T08:52:35.158Z,1.70
2023-12-16T08:55:05.501Z,1.60
2023-12-16T08:57:33.966Z,1.80
2023-12-16T09:00:02.337Z,1.70
2023-12-16T09:02:30.737Z,1.70
2023-12-16T09:04:59.156Z,1.90
2023-12-16T09:07:27.500Z,1.90
2023-12-16T09:09:55.729Z,2.30
2023-12-16T09:12:24.101Z,2.10
2023-12-16T09:14:53.325Z,1.80
2023-12-16T09:17:21.612Z,1.80
2023-12-16T09:19:50.656Z,2.30
2023-12-16T09:22:19.302Z,2.70
2023-12-16T09:24:48.758Z,3.50
2023-12-16T09:27:16.869Z,3.00
2023-12-16T09:29:45.298Z,3.60
2023-12-16T09:32:13.484Z,6.20
2023-12-16T09:34:42.245Z,6.50
2023-12-16T09:37:10.817Z,3.80
2023-12-16T09:39:40.385Z,4.00
2023-12-16T09:42:08.766Z,3.20
2023-12-16T09:44:38.971Z,2.50
2023-12-16T09:47:07.422Z,3.40
2023-12-16T09:49:37.579Z,2.80
2023-12-16T09:52:06.596Z,2.20
2023-12-16T09:54:34.795Z,2.00
2023-12-16T09:57:04.506Z,2.80
2023-12-16T09:59:36.853Z,1.80
2023-12-16T10:02:14.090Z,2.00
2023-12-16T10:04:43.332Z,1.80
2023-12-16T10:07:11.767Z,1.50
2023-12-16T10:09:40.040Z,1.00
2023-12-16T10:12:08.255Z,1.50
2023-12-16T10:14:50.533Z,1.80
2023-12-16T10:17:21.305Z,1.50
2023-12-16T10:19:50.092Z,1.70
2023-12-16T10:22:20.032Z,1.40
2023-12-16T10:24:48.841Z,1.50
2023-12-16T10:27:17.177Z,1.60
2023-12-16T10:29:58.017Z,1.60
2023-12-16T10:32:32.225Z,1.60
2023-12-16T10:35:01.059Z,1.40
2023-12-16T10:37:30.142Z,1.60
2023-12-16T10:39:58.902Z,1.40
2023-12-16T10:42:27.908Z,1.50
2023-12-16T10:44:56.109Z,1.60
2023-12-16T10:47:27.987Z,1.70
2023-12-16T10:49:59.462Z,1.60
2023-12-16T10:52:33.034Z,1.50
2023-12-16T10:55:05.946Z,1.70
2023-12-16T10:57:59.704Z,1.90
2023-12-16T11:00:31.888Z,1.90
2023-12-16T11:03:29.600Z,1.90
2023-12-16T11:06:03.872Z,2.40
2023-12-16T11:08:33.941Z,2.10
2023-12-16T11:11:04.159Z,2.20
2023-12-16T11:13:35.807Z,2.40
2023-12-16T11:16:15.247Z,2.10
2023-12-16T11:18:49.487Z,2.10
2023-12-16T11:21:21.396Z,2.50
2023-12-16T11:23:50.403Z,2.40
2023-12-16T11:26:18.734Z,2.50
2023-12-16T11:28:54.164Z,2.40
2023-12-16T11:31:22.525Z,2.30
2023-12-16T11:33:51.504Z,2.70
2023-12-16T11:36:49.452Z,2.40
2023-12-16T11:39:37.760Z,2.20
2023-12-16T11:42:09.043Z,2.70
2023-12-16T11:44:48.719Z,2.50
2023-12-16T11:47:22.396Z,2.30
2023-12-16T11:49:52.457Z,2.50
2023-12-16T11:52:23.701Z,2.70
2023-12-16T11:54:58.576Z,2.00
2023-12-16T11:57:28.594Z,1.80
2023-12-16T11:59:58.538Z,2.30
2023-12-16T12:02:27.412Z,2.10
2023-12-16T12:04:56.358Z,2.00
2023-12-16T12:07:25.757Z,2.00
2023-12-16T12:09:55.036Z,1.70
2023-12-16T12:12:23.214Z,1.90
2023-12-16T12:14:51.362Z,1.90
2023-12-16T12:17:20.297Z,1.50
2023-12-16T12:19:49.697Z,1.80
2023-12-16T12:22:21.731Z,1.50
2023-12-16T12:24:50.282Z,1.40
2023-12-16T12:27:19.986Z,1.40
2023-12-16T12:30:04.626Z,1.60
2023-12-16T12:32:34.485Z,1.30
2023-12-16T12:35:08.851Z,1.40
2023-12-16T12:37:39.614Z,1.20
2023-12-16T12:40:18.181Z,1.30
2023-12-16T12:42:54.980Z,1.10
2023-12-16T12:45:37.435Z,1.30
2023-12-16T12:48:17.889Z,1.20
2023-12-16T12:50:48.353Z,1.00
2023-12-16T12:53:23.762Z,1.00
2023-12-16T12:55:56.134Z,1.10
2023-12-16T12:58:29.152Z,1.10
2023-12-16T13:01:02.573Z,1.50
2023-12-16T13:03:33.142Z,1.10
2023-12-16T13:06:07.456Z,1.10
2023-12-16T13:08:38.104Z,1.30
2023-12-16T13:11:07.383Z,1.00
2023-12-16T13:13:38.566Z,1.20
2023-12-16T13:16:07.445Z,1.20
2023-12-16T13:18:36.871Z,0.90
2023-12-16T13:21:06.651Z,0.80
2023-12-16T13:23:34.902Z,1.10
2023-12-16T13:26:06.783Z,1.00
2023-12-16T13:28:35.134Z,1.10
2023-12-16T13:31:06.626Z,0.80
2023-12-16T13:33:37.263Z,0.90
2023-12-16T13:36:32.549Z,1.00
2023-12-16T13:38:55.842Z,1.00
2023-12-16T13:41:25.251Z,1.00
2023-12-16T13:43:53.445Z,1.10
2023-12-16T13:46:21.699Z,1.20
2023-12-16T13:48:51.692Z,1.00
2023-12-16T13:51:20.363Z,0.80
2023-12-16T13:53:49.091Z,1.00
2023-12-16T13:56:18.560Z,1.00
2023-12-16T13:58:46.872Z,0.80
2023-12-16T14:01:15.194Z,1.20
2023-12-16T14:03:44.458Z,0.90
2023-12-16T14:06:13.016Z,1.00
2023-12-16T14:08:41.345Z,0.90
2023-12-16T14:11:09.559Z,0.80
2023-12-16T14:13:38.158Z,1.00
2023-12-16T14:16:08.214Z,0.60
2023-12-16T14:18:37.359Z,1.00
2023-12-16T14:21:07.113Z,0.90
2023-12-16T14:23:36.258Z,1.00
2023-12-16T14:26:05.944Z,1.00
2023-12-16T14:28:34.432Z,0.80
2023-12-16T14:31:03.521Z,1.20
2023-12-16T14:33:32.144Z,1.00
2023-12-16T14:36:01.163Z,1.20
2023-12-16T14:38:30.355Z,0.90
2023-12-16T14:40:58.659Z,1.20
2023-12-16T14:43:27.442Z,1.40
2023-12-16T14:45:55.861Z,1.10
2023-12-16T14:48:25.661Z,1.00
2023-12-16T14:50:54.613Z,1.10
2023-12-16T14:53:22.938Z,1.20
2023-12-16T14:55:51.755Z,1.30
2023-12-16T14:58:19.896Z,1.60
2023-12-16T15:00:48.341Z,1.70
2023-12-16T15:03:17.882Z,1.70
2023-12-16T15:05:46.658Z,1.80
2023-12-16T15:08:15.643Z,1.90
2023-12-16T15:10:43.986Z,1.70
2023-12-16T15:13:12.706Z,1.20
2023-12-16T15:15:41.155Z,1.40
2023-12-16T15:18:09.526Z,1.20
2023-12-16T15:20:39.046Z,1.40
2023-12-16T15:23:08.333Z,1.70
2023-12-16T15:25:38.017Z,1.30
2023-12-16T15:28:06.785Z,1.40
2023-12-16T15:30:35.429Z,1.70
2023-12-16T15:33:04.588Z,1.40
2023-12-16T15:35:33.761Z,1.10
2023-12-16T15:38:03.421Z,1.20
2023-12-16T15:40:31.777Z,1.50
2023-12-16T15:43:00.763Z,1.10
2023-12-16T15:45:29.249Z,1.50
2023-12-16T15:47:58.400Z,1.40
2023-12-16T15:50:26.737Z,1.40
2023-12-16T15:52:55.181Z,1.30
2023-12-16T15:55:23.386Z,1.20
2023-12-16T15:57:51.912Z,1.10
2023-12-16T16:00:20.322Z,1.20
2023-12-16T16:02:48.746Z,1.60
2023-12-16T16:05:17.326Z,1.70
2023-12-16T16:07:46.264Z,1.50
2023-12-16T16:10:15.760Z,1.30
2023-12-16T16:12:45.299Z,1.20
2023-12-16T16:15:17.615Z,1.20
2023-12-16T16:17:48.387Z,1.30
2023-12-16T16:20:18.338Z,1.20
2023-12-16T16:22:49.945Z,1.90
2023-12-16T16:25:18.626Z,1.50
2023-12-16T16:27:47.474Z,0.90
2023-12-16T16:30:16.016Z,1.40
2023-12-16T16:32:45.581Z,1.60
2023-12-16T16:35:13.813Z,1.50
2023-12-16T16:37:43.122Z,1.40
2023-12-16T16:40:12.070Z,1.60
2023-12-16T16:42:40.670Z,1.40
2023-12-16T16:45:10.406Z,1.40
2023-12-16T16:47:39.191Z,1.10
2023-12-16T16:50:08.448Z,1.50
2023-12-16T16:52:37.253Z,1.30
2023-12-16T16:55:09.370Z,1.20
2023-12-16T16:57:38.365Z,1.50
2023-12-16T17:00:08.890Z,1.70
2023-12-16T17:02:38.892Z,1.40
2023-12-16T17:05:08.308Z,1.40
2023-12-16T17:07:36.960Z,1.30
2023-12-16T17:10:06.020Z,1.50
2023-12-16T17:12:34.870Z,1.20
2023-12-16T17:15:03.265Z,1.60
2023-12-16T17:17:33.856Z,3.70
2023-12-16T17:20:02.305Z,3.30
2023-12-16T17:22:31.213Z,1.80
2023-12-16T17:25:00.499Z,1.70
2023-12-16T17:27:30.214Z,2.40
2023-12-16T17:29:59.118Z,2.70
2023-12-16T17:32:27.593Z,1.70
2023-12-16T17:34:56.805Z,1.70
2023-12-16T17:37:25.814Z,1.90
2023-12-16T17:39:54.127Z,2.00
2023-12-16T17:42:22.376Z,1.80
2023-12-16T17:44:51.367Z,2.20
2023-12-16T17:47:20.176Z,1.80
2023-12-16T17:49:48.570Z,2.00
2023-12-16T17:52:16.848Z,1.90
2023-12-16T17:54:45.647Z,1.70
2023-12-16T17:57:14.440Z,2.00
2023-12-16T17:59:44.184Z,2.10
2023-12-16T18:02:12.979Z,1.70
2023-12-16T18:04:41.355Z,1.80
2023-12-16T18:07:09.814Z,2.10
2023-12-16T18:09:38.265Z,2.10
2023-12-16T18:12:06.888Z,2.40
2023-12-16T18:14:35.751Z,1.80
2023-12-16T18:17:04.243Z,2.30
2023-12-16T18:19:33.050Z,2.40
2023-12-16T18:22:01.247Z,2.30
2023-12-16T18:24:29.610Z,2.30
2023-12-16T18:26:58.732Z,2.00
2023-12-16T18:29:27.402Z,2.10
2023-12-16T18:31:56.214Z,2.40
2023-12-16T18:34:25.107Z,2.20
2023-12-16T18:36:53.700Z,2.90
2023-12-16T18:39:22.899Z,3.30
2023-12-16T18:41:51.039Z,4.50
2023-12-16T18:44:19.792Z,4.40
2023-12-16T18:46:49.313Z,4.60
2023-12-16T18:49:18.155Z,4.70
2023-12-16T18:51:46.502Z,5.30
2023-12-16T18:54:15.491Z,6.40
2023-12-16T18:56:44.761Z,6.50
2023-12-16T18:59:13.778Z,6.90
2023-12-16T19:01:42.029Z,7.30
2023-12-16T19:04:11.017Z,9.10
2023-12-16T19:06:39.350Z,12.50
2023-12-16T19:09:08.803Z,10.70
2023-12-16T19:11:37.168Z,9.60
2023-12-16T19:14:06.173Z,7.30
2023-12-16T19:16:35.686Z,7.60
2023-12-16T19:19:04.694Z,7.40
2023-12-16T19:21:33.659Z,7.40
2023-12-16T19:24:01.928Z,7.30
2023-12-16T19:26:30.624Z,7.20
2023-12-16T19:28:59.413Z,6.60
2023-12-16T19:31:28.533Z,6.30
2023-12-16T19:33:57.492Z,6.10
2023-12-16T19:36:26.633Z,5.90
2023-12-16T19:38:58.183Z,6.30
2023-12-16T19:41:26.796Z,6.30
2023-12-16T19:43:56.139Z,5.60
2023-12-16T19:46:26.034Z,6.50
2023-12-16T19:48:54.893Z,5.20
2023-12-16T19:51:23.545Z,4.70
2023-12-16T19:53:51.949Z,5.30
2023-12-16T19:56:20.394Z,4.70
2023-12-16T19:58:48.782Z,4.60
2023-12-16T20:01:17.235Z,4.90
2023-12-16T20:03:46.768Z,4.70
2023-12-16T20:06:15.627Z,5.80
2023-12-16T20:08:44.346Z,5.20
2023-12-16T20:11:13.930Z,5.10
2023-12-16T20:13:42.377Z,5.60
2023-12-16T20:16:10.660Z,5.60
2023-12-16T20:18:39.210Z,6.30
2023-12-16T20:21:07.845Z,6.10
2023-12-16T20:23:36.097Z,6.00
2023-12-16T20:26:04.957Z,5.20
2023-12-16T20:28:33.335Z,5.90
2023-12-16T20:31:02.010Z,5.40
2023-12-16T20:33:30.457Z,6.40
2023-12-16T20:35:59.039Z,6.00
2023-12-16T20:38:27.270Z,5.40
2023-12-16T20:40:56.246Z,6.50
2023-12-16T20:43:25.008Z,5.70
2023-12-16T20:45:53.447Z,6.00
2023-12-16T20:48:22.796Z,5.10
2023-12-16T20:50:51.354Z,5.50
2023-12-16T20:53:19.930Z,6.00
2023-12-16T20:55:48.327Z,5.70
2023-12-16T20:58:17.038Z,5.60
2023-12-16T21:00:45.665Z,5.60
2023-12-16T21:03:14.569Z,4.40
2023-12-16T21:05:44.926Z,4.30
2023-12-16T21:08:13.636Z,4.30
2023-12-16T21:10:41.974Z,4.20
2023-12-16T21:13:11.490Z,4.20
2023-12-16T21:15:41.190Z,4.80
2023-12-16T21:18:09.755Z,4.90
2023-12-16T21:20:38.164Z,4.10
2023-12-16T21:23:07.120Z,4.30
2023-12-16T21:25:35.306Z,4.10
2023-12-16T21:28:03.648Z,3.00
2023-12-16T21:30:33.316Z,1.90
2023-12-16T21:33:02.317Z,2.20
2023-12-16T21:35:31.568Z,2.20
2023-12-16T21:38:00.181Z,2.20
2023-12-16T21:40:28.336Z,2.40
2023-12-16T21:42:56.520Z,2.00
2023-12-16T21:45:24.745Z,1.80
2023-12-16T21:47:53.783Z,1.90
2023-12-16T21:50:22.976Z,1.90
2023-12-16T21:52:51.901Z,1.90
2023-12-16T21:55:20.219Z,2.00
2023-12-16T21:57:49.082Z,1.80
2023-12-16T22:00:19.426Z,1.90
2023-12-16T22:02:47.690Z,2.10
2023-12-16T22:05:17.333Z,2.20
2023-12-16T22:07:45.904Z,4.30
2023-12-16T22:10:14.474Z,7.10
2023-12-16T22:12:43.515Z,9.70
2023-12-16T22:15:12.957Z,11.00
2023-12-16T22:17:41.713Z,10.90
2023-12-16T22:20:10.904Z,10.20
2023-12-16T22:22:39.831Z,10.00
2023-12-16T22:25:08.694Z,8.80
2023-12-16T22:27:38.020Z,8.00
2023-12-16T22:30:07.840Z,8.40
2023-12-16T22:32:36.383Z,8.00
2023-12-16T22:35:05.831Z,7.90
2023-12-16T22:37:35.281Z,7.30
2023-12-16T22:40:03.559Z,7.70
2023-12-16T22:42:32.003Z,6.40
2023-12-16T22:45:00.398Z,6.70
2023-12-16T22:47:28.753Z,6.50
2023-12-16T22:49:58.222Z,5.60
2023-12-16T22:52:27.440Z,4.10
2023-12-16T22:54:56.775Z,4.10
2023-12-16T22:57:25.407Z,3.80
2023-12-16T22:59:54.248Z,4.20
2023-12-16T23:02:22.937Z,3.80
2023-12-16T23:04:51.215Z,4.40
2023-12-16T23:07:19.478Z,4.20
2023-12-16T23:09:47.677Z,4.40
2023-12-16T23:12:16.517Z,4.10
2023-12-16T23:14:45.397Z,3.80
2023-12-16T23:17:13.738Z,3.90
2023-12-16T23:19:42.570Z,3.90
2023-12-16T23:22:11.326Z,0.70
2023-12-16T23:24:41.470Z,3.90
2023-12-16T23:27:11.314Z,4.30
2023-12-16T23:29:40.946Z,4.50
2023-12-16T23:32:09.869Z,4.80
2023-12-16T23:34:39.619Z,5.70
2023-12-16T23:37:09.689Z,5.70
2023-12-16T23:39:39.195Z,5.90
2023-12-16T23:42:08.942Z,6.40
2023-12-16T23:44:37.948Z,1.40
2023-12-16T23:47:07.736Z,4.60
2023-12-16T23:49:37.294Z,4.30
2023-12-16T23:52:05.601Z,4.80
2023-12-16T23:54:33.808Z,0.60
2023-12-16T23:57:02.779Z,3.80
2023-12-16T23:59:31.467Z,4.40
